sensor_id;sensor_type;location;lat;lon;timestamp;pressure;altitude;pressure_sealevel;temperature;humidity
50652;BME280;66928;52.086;5.240;2023-03-03T06:25:49;102495.0;;;2.58;95.63
50652;BME280;66928;52.086;5.240;2023-03-03T06:27:26;102497.0;;;2.46;96.33
50652;BME280;66928;52.086;5.240;2023-03-03T06:29:02;102498.0;;;2.52;96.43
50652;BME280;66928;52.086;5.240;2023-03-03T06:32:15;102498.0;;;2.46;96.75
50652;BME280;66928;52.086;5.240;2023-03-03T06:33:51;102499.0;;;2.56;96.56
50652;BME280;66928;52.086;5.240;2023-03-03T06:35:28;102501.0;;;2.39;96.96
50652;BME280;66928;52.086;5.240;2023-03-03T06:37:05;102498.0;;;2.46;97.17
50652;BME280;66928;52.086;5.240;2023-03-03T06:40:18;102500.0;;;2.48;97.56
50652;BME280;66928;52.086;5.240;2023-03-03T06:41:54;102497.0;;;2.44;97.54
50652;BME280;66928;52.086;5.240;2023-03-03T06:43:30;102505.0;;;2.54;97.27
50652;BME280;66928;52.086;5.240;2023-03-03T06:46:43;102507.0;;;2.5;97.32
50652;BME280;66928;52.086;5.240;2023-03-03T06:48:19;102504.0;;;2.56;97.34
50652;BME280;66928;52.086;5.240;2023-03-03T06:49:55;102508.99999999999;;;2.57;97.32
50652;BME280;66928;52.086;5.240;2023-03-03T06:53:12;102513.00000000001;;;2.58;97.19
50652;BME280;66928;52.086;5.240;2023-03-03T06:54:52;102517.0;;;2.65;96.99
50652;BME280;66928;52.086;5.240;2023-03-03T06:56:33;102517.0;;;2.6;97.22
50652;BME280;66928;52.086;5.240;2023-03-03T06:58:14;102524.0;;;2.64;97.2
50652;BME280;66928;52.086;5.240;2023-03-03T07:01:33;102528.0;;;2.67;96.92
50652;BME280;66928;52.086;5.240;2023-03-03T07:03:14;102523.0;;;2.56;97.16
50652;BME280;66928;52.086;5.240;2023-03-03T07:04:52;102524.0;;;2.68;97.3
50652;BME280;66928;52.086;5.240;2023-03-03T07:06:31;102524.0;;;2.79;96.65
50652;BME280;66928;52.086;5.240;2023-03-03T07:09:52;102529.0;;;2.68;96.91
50652;BME280;66928;52.086;5.240;2023-03-03T07:11:29;102533.99999999999;;;2.62;97.12
50652;BME280;66928;52.086;5.240;2023-03-03T07:13:16;102538.00000000001;;;2.68;97.06
50652;BME280;66928;52.086;5.240;2023-03-03T07:15:01;102538.00000000001;;;2.61;97.12
50652;BME280;66928;52.086;5.240;2023-03-03T07:18:36;102542.0;;;2.59;97.41
50652;BME280;66928;52.086;5.240;2023-03-03T07:20:17;102540.00000000001;;;2.68;97.39
50652;BME280;66928;52.086;5.240;2023-03-03T07:21:56;102545.0;;;2.68;97.06
50652;BME280;66928;52.086;5.240;2023-03-03T07:23:36;102546.0;;;2.7;97.28
50652;BME280;66928;52.086;5.240;2023-03-03T07:28:52;102550.0;;;2.69;97.35
50652;BME280;66928;52.086;5.240;2023-03-03T07:30:29;102550.0;;;2.7;97.67
50652;BME280;66928;52.086;5.240;2023-03-03T07:32:18;102549.0;;;2.73;97.38
50652;BME280;66928;52.086;5.240;2023-03-03T07:33:58;102553.0;;;2.73;97.44
50652;BME280;66928;52.086;5.240;2023-03-03T07:37:16;102552.0;;;2.79;97.53
50652;BME280;66928;52.086;5.240;2023-03-03T07:39:24;102551.0;;;2.85;97.38
50652;BME280;66928;52.086;5.240;2023-03-03T07:41:09;102550.0;;;2.92;97.13
50652;BME280;66928;52.086;5.240;2023-03-03T07:42:47;102558.99999999999;;;2.91;97.11
50652;BME280;66928;52.086;5.240;2023-03-03T07:44:27;102557.0;;;2.89;97.36
50652;BME280;66928;52.086;5.240;2023-03-03T07:46:22;102557.0;;;2.85;97.51
50652;BME280;66928;52.086;5.240;2023-03-03T07:49:56;102564.00000000001;;;2.86;97.55
50652;BME280;66928;52.086;5.240;2023-03-03T07:51:37;102559.99999999999;;;2.86;97.48
50652;BME280;66928;52.086;5.240;2023-03-03T07:53:30;102566.00000000001;;;2.9;97.69
50652;BME280;66928;52.086;5.240;2023-03-03T07:55:30;102575.0;;;3.02;97.04
50652;BME280;66928;52.086;5.240;2023-03-03T07:57:17;102573.0;;;3.06;96.68
50652;BME280;66928;52.086;5.240;2023-03-03T07:58:57;102578.0;;;3.16;96.55
50652;BME280;66928;52.086;5.240;2023-03-03T08:03:16;102582.0;;;3.06;97.13
50652;BME280;66928;52.086;5.240;2023-03-03T08:06:36;102588.00000000001;;;3.03;97.15
50652;BME280;66928;52.086;5.240;2023-03-03T08:08:27;102591.00000000001;;;3.09;96.95
50652;BME280;66928;52.086;5.240;2023-03-03T08:10:28;102586.99999999999;;;3.16;96.61
50652;BME280;66928;52.086;5.240;2023-03-03T08:12:19;102583.99999999999;;;3.14;96.47
50652;BME280;66928;52.086;5.240;2023-03-03T08:14:14;102588.00000000001;;;3.1;96.67
50652;BME280;66928;52.086;5.240;2023-03-03T08:15:58;102588.00000000001;;;3.23;96.38
50652;BME280;66928;52.086;5.240;2023-03-03T08:17:38;102593.0;;;3.42;95.66
50652;BME280;66928;52.086;5.240;2023-03-03T08:20:55;102592.0;;;3.45;95.51
50652;BME280;66928;52.086;5.240;2023-03-03T08:22:34;102598.0;;;3.52;95.03
50652;BME280;66928;52.086;5.240;2023-03-03T08:24:10;102601.0;;;3.6;94.78
50652;BME280;66928;52.086;5.240;2023-03-03T08:27:24;102602.0;;;3.51;94.74
50652;BME280;66928;52.086;5.240;2023-03-03T08:29:00;102599.0;;;3.59;94.52
50652;BME280;66928;52.086;5.240;2023-03-03T08:30:37;102608.0;;;3.59;94.41
50652;BME280;66928;52.086;5.240;2023-03-03T08:32:14;102606.0;;;3.49;94.67
50652;BME280;66928;52.086;5.240;2023-03-03T08:35:27;102609.99999999999;;;3.37;95.26
50652;BME280;66928;52.086;5.240;2023-03-03T08:37:03;102607.0;;;3.51;95.28
50652;BME280;66928;52.086;5.240;2023-03-03T08:38:39;102604.0;;;3.61;94.77
50652;BME280;66928;52.086;5.240;2023-03-03T08:41:52;102607.0;;;3.68;94.36
50652;BME280;66928;52.086;5.240;2023-03-03T08:43:29;102606.0;;;3.62;94.11
50652;BME280;66928;52.086;5.240;2023-03-03T08:45:05;102608.99999999999;;;3.65;94.05
50652;BME280;66928;52.086;5.240;2023-03-03T08:48:19;102609.99999999999;;;3.68;93.91
50652;BME280;66928;52.086;5.240;2023-03-03T08:49:56;102614.00000000001;;;3.75;93.93
50652;BME280;66928;52.086;5.240;2023-03-03T08:51:32;102606.0;;;3.71;93.54
50652;BME280;66928;52.086;5.240;2023-03-03T08:53:09;102606.0;;;3.87;93.19
50652;BME280;66928;52.086;5.240;2023-03-03T08:56:22;102606.0;;;3.92;92.95
50652;BME280;66928;52.086;5.240;2023-03-03T08:57:58;102608.99999999999;;;4.03;92.34
50652;BME280;66928;52.086;5.240;2023-03-03T08:59:34;102606.0;;;4.33;91.57
50652;BME280;66928;52.086;5.240;2023-03-03T09:02:46;102608.0;;;4.37;90.81
50652;BME280;66928;52.086;5.240;2023-03-03T09:04:23;102614.00000000001;;;4.46;90.49
50652;BME280;66928;52.086;5.240;2023-03-03T09:06:00;102613.00000000001;;;4.5;90.1
50652;BME280;66928;52.086;5.240;2023-03-03T09:09:13;102614.00000000001;;;4.7;89.4
50652;BME280;66928;52.086;5.240;2023-03-03T09:10:49;102613.00000000001;;;4.51;89.19
50652;BME280;66928;52.086;5.240;2023-03-03T09:12:29;102617.0;;;4.41;89.12
50652;BME280;66928;52.086;5.240;2023-03-03T09:14:10;102609.99999999999;;;4.41;89.25
50652;BME280;66928;52.086;5.240;2023-03-03T09:17:26;102613.00000000001;;;4.28;89.58
50652;BME280;66928;52.086;5.240;2023-03-03T09:19:21;102613.00000000001;;;4.3;89.57
50652;BME280;66928;52.086;5.240;2023-03-03T09:21:00;102613.00000000001;;;4.36;89.73
50652;BME280;66928;52.086;5.240;2023-03-03T09:22:36;102605.0;;;4.43;89.19
50652;BME280;66928;52.086;5.240;2023-03-03T09:26:17;102606.0;;;4.54;89.35
50652;BME280;66928;52.086;5.240;2023-03-03T09:28:18;102607.0;;;4.55;88.45
50652;BME280;66928;52.086;5.240;2023-03-03T09:30:00;102607.0;;;4.57;87.93
50652;BME280;66928;52.086;5.240;2023-03-03T09:31:39;102607.0;;;4.62;87.87
50652;BME280;66928;52.086;5.240;2023-03-03T09:33:23;102607.0;;;4.74;87.29
50652;BME280;66928;52.086;5.240;2023-03-03T09:35:21;102605.0;;;4.92;86.73
50652;BME280;66928;52.086;5.240;2023-03-03T09:37:20;102615.00000000001;;;4.88;86.65
50652;BME280;66928;52.086;5.240;2023-03-03T09:40:47;102608.99999999999;;;4.75;86.61
50652;BME280;66928;52.086;5.240;2023-03-03T09:42:39;102617.0;;;4.8;86.54
50652;BME280;66928;52.086;5.240;2023-03-03T09:44:50;102613.00000000001;;;4.74;86.63
50652;BME280;66928;52.086;5.240;2023-03-03T09:47:54;102615.00000000001;;;4.62;86.76
50652;BME280;66928;52.086;5.240;2023-03-03T09:49:45;102616.00000000001;;;4.78;86.48
50652;BME280;66928;52.086;5.240;2023-03-03T09:54:00;102617.0;;;4.89;86.19
50652;BME280;66928;52.086;5.240;2023-03-03T09:55:58;102618.0;;;4.83;86.4
50652;BME280;66928;52.086;5.240;2023-03-03T09:59:45;102621.0;;;4.95;85.92
50652;BME280;66928;52.086;5.240;2023-03-03T10:01:35;102624.0;;;4.88;85.72
50652;BME280;66928;52.086;5.240;2023-03-03T10:05:07;102627.0;;;4.87;85.3
50652;BME280;66928;52.086;5.240;2023-03-03T10:06:54;102621.0;;;5.0;84.57
50652;BME280;66928;52.086;5.240;2023-03-03T10:08:49;102623.0;;;5.12;84.38
50652;BME280;66928;52.086;5.240;2023-03-03T10:10:52;102620.0;;;5.2;84.19
50652;BME280;66928;52.086;5.240;2023-03-03T10:13:02;102619.0;;;5.21;83.94
50652;BME280;66928;52.086;5.240;2023-03-03T10:14:57;102627.0;;;5.31;83.77
50652;BME280;66928;52.086;5.240;2023-03-03T10:17:20;102619.0;;;5.36;82.97
50652;BME280;66928;52.086;5.240;2023-03-03T10:19:02;102621.0;;;5.35;82.76
50652;BME280;66928;52.086;5.240;2023-03-03T10:22:44;102618.0;;;5.33;82.82
50652;BME280;66928;52.086;5.240;2023-03-03T10:24:27;102626.0;;;5.18;82.82
50652;BME280;66928;52.086;5.240;2023-03-03T10:26:16;102622.0;;;5.25;82.28
50652;BME280;66928;52.086;5.240;2023-03-03T10:28:16;102617.0;;;5.22;82.3
50652;BME280;66928;52.086;5.240;2023-03-03T10:30:02;102614.00000000001;;;5.31;82.12
50652;BME280;66928;52.086;5.240;2023-03-03T10:31:50;102618.0;;;5.26;82.39
50652;BME280;66928;52.086;5.240;2023-03-03T10:33:42;102622.0;;;5.33;81.61
50652;BME280;66928;52.086;5.240;2023-03-03T10:37:19;102620.0;;;5.37;81.58
50652;BME280;66928;52.086;5.240;2023-03-03T10:39:12;102621.0;;;5.44;81.78
50652;BME280;66928;52.086;5.240;2023-03-03T10:41:02;102621.0;;;5.53;81.17
50652;BME280;66928;52.086;5.240;2023-03-03T10:42:57;102624.0;;;5.54;80.52
50652;BME280;66928;52.086;5.240;2023-03-03T10:44:56;102629.0;;;5.5;79.95
50652;BME280;66928;52.086;5.240;2023-03-03T10:46:51;102623.0;;;5.52;80.38
50652;BME280;66928;52.086;5.240;2023-03-03T10:48:44;102622.0;;;5.7;80.02
50652;BME280;66928;52.086;5.240;2023-03-03T10:50:33;102625.0;;;5.63;79.58
50652;BME280;66928;52.086;5.240;2023-03-03T10:54:18;102624.0;;;5.73;79.11
50652;BME280;66928;52.086;5.240;2023-03-03T10:56:16;102624.0;;;5.81;78.7
50652;BME280;66928;52.086;5.240;2023-03-03T10:58:21;102621.0;;;5.92;78.19
50652;BME280;66928;52.086;5.240;2023-03-03T11:00:16;102623.0;;;6.01;77.55
50652;BME280;66928;52.086;5.240;2023-03-03T11:02:02;102620.0;;;6.13;76.56
50652;BME280;66928;52.086;5.240;2023-03-03T11:03:54;102625.0;;;6.26;76.16
50652;BME280;66928;52.086;5.240;2023-03-03T11:07:01;102623.0;;;6.21;74.74
50652;BME280;66928;52.086;5.240;2023-03-03T11:10:33;102625.0;;;6.21;74.41
50652;BME280;66928;52.086;5.240;2023-03-03T11:12:27;102620.0;;;6.34;74.22
50652;BME280;66928;52.086;5.240;2023-03-03T11:14:20;102624.0;;;6.25;73.09
50652;BME280;66928;52.086;5.240;2023-03-03T11:16:12;102617.0;;;6.28;73.58
50652;BME280;66928;52.086;5.240;2023-03-03T11:18:06;102611.99999999999;;;6.35;73.22
50652;BME280;66928;52.086;5.240;2023-03-03T11:20:00;102608.0;;;6.45;72.74
50652;BME280;66928;52.086;5.240;2023-03-03T11:21:44;102611.99999999999;;;6.55;71.95
50652;BME280;66928;52.086;5.240;2023-03-03T11:25:26;102603.0;;;6.63;71.45
50652;BME280;66928;52.086;5.240;2023-03-03T11:27:20;102605.0;;;6.78;70.95
50652;BME280;66928;52.086;5.240;2023-03-03T11:29:11;102606.0;;;6.91;70.86
50652;BME280;66928;52.086;5.240;2023-03-03T11:31:05;102607.0;;;7.09;70.2
50652;BME280;66928;52.086;5.240;2023-03-03T11:32:53;102601.0;;;7.17;69.97
50652;BME280;66928;52.086;5.240;2023-03-03T11:34:49;102596.0;;;7.23;70.12
50652;BME280;66928;52.086;5.240;2023-03-03T11:36:36;102599.0;;;7.17;68.95
50652;BME280;66928;52.086;5.240;2023-03-03T11:41:00;102600.0;;;7.13;68.64
50652;BME280;66928;52.086;5.240;2023-03-03T11:42:46;102595.0;;;7.18;68.63
50652;BME280;66928;52.086;5.240;2023-03-03T11:46:14;102599.0;;;7.17;68.64
50652;BME280;66928;52.086;5.240;2023-03-03T11:47:58;102595.0;;;7.16;68.38
50652;BME280;66928;52.086;5.240;2023-03-03T11:49:40;102595.0;;;7.1;68.61
50652;BME280;66928;52.086;5.240;2023-03-03T11:51:31;102597.0;;;7.25;68.42
50652;BME280;66928;52.086;5.240;2023-03-03T11:53:24;102604.0;;;7.41;67.33
50652;BME280;66928;52.086;5.240;2023-03-03T11:55:24;102592.0;;;7.3;66.66
50652;BME280;66928;52.086;5.240;2023-03-03T11:59:03;102588.00000000001;;;7.52;66.12
50652;BME280;66928;52.086;5.240;2023-03-03T12:00:50;102589.00000000001;;;7.66;65.45
50652;BME280;66928;52.086;5.240;2023-03-03T12:02:39;102584.99999999999;;;7.74;65.27
50652;BME280;66928;52.086;5.240;2023-03-03T12:04:33;102592.0;;;7.66;64.61
50652;BME280;66928;52.086;5.240;2023-03-03T12:06:20;102595.0;;;7.47;65.1
50652;BME280;66928;52.086;5.240;2023-03-03T12:08:06;102583.0;;;7.2;65.98
50652;BME280;66928;52.086;5.240;2023-03-03T12:10:04;102588.00000000001;;;7.34;65.22
50652;BME280;66928;52.086;5.240;2023-03-03T12:13:34;102580.0;;;7.37;65.2
50652;BME280;66928;52.086;5.240;2023-03-03T12:15:26;102592.0;;;7.35;64.77
50652;BME280;66928;52.086;5.240;2023-03-03T12:17:15;102579.0;;;7.42;64.78
50652;BME280;66928;52.086;5.240;2023-03-03T12:19:14;102589.00000000001;;;7.35;64.27
50652;BME280;66928;52.086;5.240;2023-03-03T12:21:02;102573.0;;;7.45;63.01
50652;BME280;66928;52.086;5.240;2023-03-03T12:22:58;102571.0;;;7.62;62.55
50652;BME280;66928;52.086;5.240;2023-03-03T12:24:52;102570.0;;;7.81;62.35
50652;BME280;66928;52.086;5.240;2023-03-03T12:26:45;102571.0;;;7.81;62.45
50652;BME280;66928;52.086;5.240;2023-03-03T12:30:19;102570.0;;;7.81;58.59
50652;BME280;66928;52.086;5.240;2023-03-03T12:32:10;102567.0;;;7.7;58.39
50652;BME280;66928;52.086;5.240;2023-03-03T12:33:55;102569.0;;;7.66;57.94
50652;BME280;66928;52.086;5.240;2023-03-03T12:35:37;102569.0;;;7.69;58.99
50652;BME280;66928;52.086;5.240;2023-03-03T12:37:24;102561.99999999999;;;7.83;58.63
50652;BME280;66928;52.086;5.240;2023-03-03T12:39:13;102559.99999999999;;;7.76;58.64
50652;BME280;66928;52.086;5.240;2023-03-03T12:42:51;102557.0;;;7.84;59.17
50652;BME280;66928;52.086;5.240;2023-03-03T12:44:35;102557.0;;;7.92;58.56
50652;BME280;66928;52.086;5.240;2023-03-03T12:46:21;102551.0;;;8.08;59.58
50652;BME280;66928;52.086;5.240;2023-03-03T12:48:07;102555.0;;;8.14;58.89
50652;BME280;66928;52.086;5.240;2023-03-03T12:49:52;102564.00000000001;;;8.15;59.34
50652;BME280;66928;52.086;5.240;2023-03-03T12:51:45;102551.0;;;8.06;60.11
50652;BME280;66928;52.086;5.240;2023-03-03T12:55:24;102563.00000000001;;;7.95;61.5
50652;BME280;66928;52.086;5.240;2023-03-03T12:57:18;102552.0;;;7.98;61.64
50652;BME280;66928;52.086;5.240;2023-03-03T12:59:01;102550.0;;;8.08;61.6
50652;BME280;66928;52.086;5.240;2023-03-03T13:00:48;102549.0;;;8.13;61.31
50652;BME280;66928;52.086;5.240;2023-03-03T13:02:39;102545.0;;;8.26;59.39
50652;BME280;66928;52.086;5.240;2023-03-03T13:04:28;102541.00000000001;;;8.42;59.18
50652;BME280;66928;52.086;5.240;2023-03-03T13:08:11;102548.0;;;8.41;58.92
50652;BME280;66928;52.086;5.240;2023-03-03T13:10:02;102547.0;;;8.31;58.78
50652;BME280;66928;52.086;5.240;2023-03-03T13:11:59;102543.0;;;8.24;59.01
50652;BME280;66928;52.086;5.240;2023-03-03T13:13:46;102539.00000000001;;;8.18;59.58
50652;BME280;66928;52.086;5.240;2023-03-03T13:15:30;102542.0;;;8.22;59.73
50652;BME280;66928;52.086;5.240;2023-03-03T13:17:17;102540.00000000001;;;8.26;60.11
50652;BME280;66928;52.086;5.240;2023-03-03T13:19:01;102541.00000000001;;;8.28;59.52
50652;BME280;66928;52.086;5.240;2023-03-03T13:22:32;102544.0;;;8.36;58.87
50652;BME280;66928;52.086;5.240;2023-03-03T13:24:18;102541.00000000001;;;8.49;59.09
50652;BME280;66928;52.086;5.240;2023-03-03T13:26:02;102538.00000000001;;;8.8;57.93
50652;BME280;66928;52.086;5.240;2023-03-03T13:27:44;102534.99999999999;;;8.89;57.57
50652;BME280;66928;52.086;5.240;2023-03-03T13:29:26;102533.0;;;8.81;57.53
50652;BME280;66928;52.086;5.240;2023-03-03T13:32:54;102529.0;;;8.69;56.81
50652;BME280;66928;52.086;5.240;2023-03-03T13:34:40;102533.99999999999;;;8.81;56.34
50652;BME280;66928;52.086;5.240;2023-03-03T13:36:23;102529.0;;;8.81;56.02
50652;BME280;66928;52.086;5.240;2023-03-03T13:38:04;102543.0;;;8.82;56.83
50652;BME280;66928;52.086;5.240;2023-03-03T13:39:54;102536.99999999999;;;8.57;58.43
50652;BME280;66928;52.086;5.240;2023-03-03T13:43:23;102548.0;;;8.28;60.09
50652;BME280;66928;52.086;5.240;2023-03-03T13:45:12;102542.0;;;8.38;60.02
50652;BME280;66928;52.086;5.240;2023-03-03T13:47:01;102543.0;;;8.15;60.4
50652;BME280;66928;52.086;5.240;2023-03-03T13:48:51;102542.0;;;7.9;60.85
50652;BME280;66928;52.086;5.240;2023-03-03T13:50:42;102543.0;;;7.91;60.55
50652;BME280;66928;52.086;5.240;2023-03-03T13:52:23;102543.0;;;8.07;60.49
50652;BME280;66928;52.086;5.240;2023-03-03T13:55:57;102540.00000000001;;;8.19;60.25
50652;BME280;66928;52.086;5.240;2023-03-03T13:57:44;102542.0;;;8.26;58.87
50652;BME280;66928;52.086;5.240;2023-03-03T13:59:40;102539.00000000001;;;8.16;58.6
50652;BME280;66928;52.086;5.240;2023-03-03T14:01:28;102541.00000000001;;;8.07;57.63
50652;BME280;66928;52.086;5.240;2023-03-03T14:03:20;102541.00000000001;;;8.17;56.27
50652;BME280;66928;52.086;5.240;2023-03-03T14:05:12;102538.00000000001;;;8.25;56.05
50652;BME280;66928;52.086;5.240;2023-03-03T14:06:54;102538.00000000001;;;8.38;55.98
50652;BME280;66928;52.086;5.240;2023-03-03T14:10:43;102539.00000000001;;;8.49;55.76
50652;BME280;66928;52.086;5.240;2023-03-03T14:12:28;102538.00000000001;;;8.42;55.7
50652;BME280;66928;52.086;5.240;2023-03-03T14:14:29;102530.0;;;8.67;55.09
50652;BME280;66928;52.086;5.240;2023-03-03T14:16:11;102539.00000000001;;;8.55;55.29
50652;BME280;66928;52.086;5.240;2023-03-03T14:18:03;102530.0;;;8.57;56.26
50652;BME280;66928;52.086;5.240;2023-03-03T14:19:47;102527.0;;;8.45;57.24
50652;BME280;66928;52.086;5.240;2023-03-03T14:23:13;102529.0;;;8.55;57.64
50652;BME280;66928;52.086;5.240;2023-03-03T14:24:59;102523.0;;;8.52;57.2
50652;BME280;66928;52.086;5.240;2023-03-03T14:26:46;102524.0;;;8.56;57.73
50652;BME280;66928;52.086;5.240;2023-03-03T14:28:24;102523.0;;;8.47;57.11
50652;BME280;66928;52.086;5.240;2023-03-03T14:30:36;102528.0;;;8.27;57.32
50652;BME280;66928;52.086;5.240;2023-03-03T14:32:22;102521.0;;;8.31;56.58
50652;BME280;66928;52.086;5.240;2023-03-03T14:36:04;102527.0;;;8.31;56.27
50652;BME280;66928;52.086;5.240;2023-03-03T14:37:45;102521.0;;;8.17;56.37
50652;BME280;66928;52.086;5.240;2023-03-03T14:39:29;102519.0;;;8.27;55.83
50652;BME280;66928;52.086;5.240;2023-03-03T14:41:19;102517.0;;;8.25;55.8
50652;BME280;66928;52.086;5.240;2023-03-03T14:47:21;102516.00000000001;;;8.14;55.45
50652;BME280;66928;52.086;5.240;2023-03-03T14:48:59;102513.00000000001;;;8.22;54.76
50652;BME280;66928;52.086;5.240;2023-03-03T14:52:22;102508.0;;;8.2;54.4
50652;BME280;66928;52.086;5.240;2023-03-03T14:53:59;102509.99999999999;;;8.11;54.43
50652;BME280;66928;52.086;5.240;2023-03-03T14:55:37;102513.00000000001;;;8.13;54.62
50652;BME280;66928;52.086;5.240;2023-03-03T14:57:16;102514.00000000001;;;8.17;54.08
50652;BME280;66928;52.086;5.240;2023-03-03T15:01:06;102505.0;;;8.03;55.12
50652;BME280;66928;52.086;5.240;2023-03-03T15:02:59;102516.00000000001;;;7.81;55.76
50652;BME280;66928;52.086;5.240;2023-03-03T15:04:37;102508.0;;;7.85;56.99
50652;BME280;66928;52.086;5.240;2023-03-03T15:06:28;102508.0;;;8.01;56.26
50652;BME280;66928;52.086;5.240;2023-03-03T15:08:11;102508.0;;;8.06;55.53
50652;BME280;66928;52.086;5.240;2023-03-03T15:09:50;102507.0;;;7.85;56.07
50652;BME280;66928;52.086;5.240;2023-03-03T15:13:26;102505.0;;;8.0;56.26
50652;BME280;66928;52.086;5.240;2023-03-03T15:15:21;102506.0;;;8.07;56.27
50652;BME280;66928;52.086;5.240;2023-03-03T15:17:19;102507.0;;;8.19;56.11
50652;BME280;66928;52.086;5.240;2023-03-03T15:20:26;102506.0;;;8.05;56.61
50652;BME280;66928;52.086;5.240;2023-03-03T15:22:11;102504.0;;;7.83;57.89
50652;BME280;66928;52.086;5.240;2023-03-03T15:23:55;102498.0;;;7.99;57.82
50652;BME280;66928;52.086;5.240;2023-03-03T15:25:43;102503.0;;;7.82;58.09
50652;BME280;66928;52.086;5.240;2023-03-03T15:27:24;102504.0;;;7.76;57.78
50652;BME280;66928;52.086;5.240;2023-03-03T15:29:07;102500.0;;;7.8;57.15
50652;BME280;66928;52.086;5.240;2023-03-03T15:30:55;102505.0;;;7.71;57.22
50652;BME280;66928;52.086;5.240;2023-03-03T15:32:42;102498.0;;;7.67;57.09
50652;BME280;66928;52.086;5.240;2023-03-03T15:36:18;102493.0;;;7.83;56.4
50652;BME280;66928;52.086;5.240;2023-03-03T15:38:02;102491.00000000001;;;7.81;56.37
50652;BME280;66928;52.086;5.240;2023-03-03T15:39:56;102500.0;;;7.8;56.87
50652;BME280;66928;52.086;5.240;2023-03-03T15:41:42;102488.00000000001;;;8.1;56.17
50652;BME280;66928;52.086;5.240;2023-03-03T15:43:25;102488.00000000001;;;8.13;56.34
50652;BME280;66928;52.086;5.240;2023-03-03T15:47:02;102484.99999999999;;;8.14;56.26
50652;BME280;66928;52.086;5.240;2023-03-03T15:49:54;102493.0;;;7.94;56.9
50652;BME280;66928;52.086;5.240;2023-03-03T15:52:06;102491.00000000001;;;7.82;56.66
50652;BME280;66928;52.086;5.240;2023-03-03T15:54:00;102484.99999999999;;;7.5;56.61
50652;BME280;66928;52.086;5.240;2023-03-03T15:56:19;102483.99999999999;;;7.43;57.17
50652;BME280;66928;52.086;5.240;2023-03-03T15:58:15;102478.0;;;7.5;56.97
50652;BME280;66928;52.086;5.240;2023-03-03T16:01:19;102477.0;;;7.52;56.81
50652;BME280;66928;52.086;5.240;2023-03-03T16:03:01;102475.0;;;7.31;57.6
50652;BME280;66928;52.086;5.240;2023-03-03T16:04:50;102480.0;;;7.46;57.38
50652;BME280;66928;52.086;5.240;2023-03-03T16:06:38;102486.99999999999;;;7.27;57.4
50652;BME280;66928;52.086;5.240;2023-03-03T16:08:28;102476.0;;;7.23;58.14
50652;BME280;66928;52.086;5.240;2023-03-03T16:10:20;102475.0;;;7.4;57.77
50652;BME280;66928;52.086;5.240;2023-03-03T16:13:58;102483.0;;;7.65;57.12
50652;BME280;66928;52.086;5.240;2023-03-03T16:15:45;102484.99999999999;;;7.58;57.14
50652;BME280;66928;52.086;5.240;2023-03-03T16:17:31;102481.0;;;7.65;57.02
50652;BME280;66928;52.086;5.240;2023-03-03T16:19:23;102484.99999999999;;;7.39;57.41
50652;BME280;66928;52.086;5.240;2023-03-03T16:23:17;102480.0;;;7.51;57.48
50652;BME280;66928;52.086;5.240;2023-03-03T16:25:21;102480.0;;;7.53;57.26
50652;BME280;66928;52.086;5.240;2023-03-03T16:27:11;102479.0;;;7.56;56.99
50652;BME280;66928;52.086;5.240;2023-03-03T16:31:22;102478.0;;;7.42;57.09
50652;BME280;66928;52.086;5.240;2023-03-03T16:34:58;102483.0;;;7.53;57.4
50652;BME280;66928;52.086;5.240;2023-03-03T16:36:50;102478.0;;;7.3;58.13
50652;BME280;66928;52.086;5.240;2023-03-03T16:38:37;102488.00000000001;;;7.14;58.14
50652;BME280;66928;52.086;5.240;2023-03-03T16:40:20;102476.0;;;7.45;57.76
50652;BME280;66928;52.086;5.240;2023-03-03T16:42:02;102475.0;;;7.39;58.03
50652;BME280;66928;52.086;5.240;2023-03-03T16:45:38;102479.0;;;7.46;57.64
50652;BME280;66928;52.086;5.240;2023-03-03T16:47:24;102489.00000000001;;;7.45;57.63
50652;BME280;66928;52.086;5.240;2023-03-03T16:49:18;102477.0;;;7.35;57.82
50652;BME280;66928;52.086;5.240;2023-03-03T16:51:25;102481.0;;;7.31;57.88
50652;BME280;66928;52.086;5.240;2023-03-03T16:53:09;102483.0;;;7.35;58.08
50652;BME280;66928;52.086;5.240;2023-03-03T16:54:54;102486.99999999999;;;7.29;58.16
50652;BME280;66928;52.086;5.240;2023-03-03T16:56:36;102481.0;;;7.26;58.3
50652;BME280;66928;52.086;5.240;2023-03-03T17:00:11;102488.00000000001;;;7.26;58.23
50652;BME280;66928;52.086;5.240;2023-03-03T17:02:00;102484.99999999999;;;7.61;57.72
50652;BME280;66928;52.086;5.240;2023-03-03T17:03:52;102483.0;;;7.64;57.4
50652;BME280;66928;52.086;5.240;2023-03-03T17:05:41;102483.0;;;7.6;57.58
50652;BME280;66928;52.086;5.240;2023-03-03T17:07:35;102482.0;;;7.49;58.13
50652;BME280;66928;52.086;5.240;2023-03-03T17:09:28;102482.0;;;7.5;58.0
50652;BME280;66928;52.086;5.240;2023-03-03T17:11:48;102483.99999999999;;;7.62;57.82
50652;BME280;66928;52.086;5.240;2023-03-03T17:13:46;102483.99999999999;;;7.5;58.09
50652;BME280;66928;52.086;5.240;2023-03-03T17:16:04;102483.99999999999;;;7.61;58.19
50652;BME280;66928;52.086;5.240;2023-03-03T17:17:50;102493.0;;;7.61;57.63
50652;BME280;66928;52.086;5.240;2023-03-03T17:19:51;102492.0;;;7.65;57.69
50652;BME280;66928;52.086;5.240;2023-03-03T17:21:39;102496.0;;;7.76;57.57
50652;BME280;66928;52.086;5.240;2023-03-03T17:26:18;102496.0;;;8.07;56.88
50652;BME280;66928;52.086;5.240;2023-03-03T17:28:13;102493.0;;;8.06;56.77
50652;BME280;66928;52.086;5.240;2023-03-03T17:30:04;102500.0;;;8.31;56.38
50652;BME280;66928;52.086;5.240;2023-03-03T17:33:41;102496.0;;;8.24;56.17
50652;BME280;66928;52.086;5.240;2023-03-03T17:35:38;102498.0;;;8.19;56.49
50652;BME280;66928;52.086;5.240;2023-03-03T17:37:27;102496.0;;;8.26;56.24
50652;BME280;66928;52.086;5.240;2023-03-03T17:39:30;102495.0;;;8.3;56.3
50652;BME280;66928;52.086;5.240;2023-03-03T17:41:19;102496.0;;;8.48;56.13